European Causeway — C6RG7 — position and weather

sailwx.info

Track history (hours):
 
Tides and Currents Weather Stations Pressure Air Temp Water Temp Dewpoint Dewpoint Depression Visibility Wind Speed Wind Dir Waves Ship Positions

European Causeway

Operator: P & O Irish Sea

Last reported at 2019-Jun-16 13:46 UTC. Time now 2019-Jun-16 14:35 UTC.
Position N 54°60' W 005°14'.

Length 145 m; draft 5.5 m.

Type: Passenger vessel. MMSI: 311027000.

Date/timePositionNaut miles runAvg speedWind from/ knotsBaromVisibWave heightAir tempDewpointWater temp
2019-Jun-16 13:46N 54°60' W 005°14'518.4
2019-Jun-16 13:30N 54°58' W 005°22'917.0
2019-Jun-16 13:00N 54°55' W 005°36'815.7
2019-Jun-16 12:30N 54°51' W 005°48'0 0.3
2019-Jun-16 11:35N 54°51' W 005°48'0 0.0
2019-Jun-16 11:08N 54°51' W 005°48'0 0.0
2019-Jun-16 10:50N 54°51' W 005°48'0 0.0
2019-Jun-16 10:26N 54°51' W 005°48'0 0.0
2019-Jun-16 09:56N 54°51' W 005°48'0 0.0
2019-Jun-16 09:23N 54°51' W 005°48'0 0.0
2019-Jun-16 08:41N 54°51' W 005°48'0 0.0
2019-Jun-16 08:27N 54°51' W 005°48'913.0
2019-Jun-16 07:44N 54°55' W 005°34'617.1
2019-Jun-16 07:24N 54°58' W 005°25'1117.8
2019-Jun-16 06:46N 55°02' W 005°06'4 0.4
2019-Jun-15 20:14N 55°00' W 005°13'617.1
2019-Jun-15 19:55N 54°57' W 005°22'1018.0
2019-Jun-15 19:23N 54°54' W 005°37'715.9
2019-Jun-15 18:57N 54°51' W 005°48'0 0.2
2019-Jun-15 18:23N 54°51' W 005°48'0 0.0
2019-Jun-15 17:56N 54°51' W 005°48'0 0.0
2019-Jun-15 17:30N 54°51' W 005°48'811.2
2019-Jun-15 16:49N 54°55' W 005°36'717.3
2019-Jun-15 16:24N 54°58' W 005°25'7 2.5
2019-Jun-15 13:42N 55°00' W 005°14'618.1
2019-Jun-15 13:22N 54°57' W 005°24'717.3
2019-Jun-15 12:57N 54°54' W 005°36'815.6
2019-Jun-15 12:27N 54°51' W 005°48'0 0.2
2019-Jun-15 11:26N 54°51' W 005°48'2015.6
2019-Jun-15 10:08N 55°00' W 005°16'217.9
2019-Jun-15 10:00N 55°01' W 005°12'2 1.0
2019-Jun-15 07:35N 55°00' W 005°16'516.7
2019-Jun-15 07:17N 54°57' W 005°23'818.2
2019-Jun-15 06:50N 54°54' W 005°37'717.5
2019-Jun-15 06:26N 54°51' W 005°48'1 0.8
2019-Jun-15 05:43N 54°51' W 005°48'0 0.0
2019-Jun-15 05:28N 54°51' W 005°48'0 0.0
2019-Jun-15 05:00N 54°51' W 005°48'713.1
2019-Jun-15 04:27N 54°55' W 005°38'817.4
2019-Jun-15 04:00N 54°60' W 005°27'7 1.9
2019-Jun-15 00:14N 55°00' W 005°14'417.9
2019-Jun-15 00:01N 54°58' W 005°20'917.0
2019-Jun-14 23:30N 54°55' W 005°34'915.9
2019-Jun-14 22:58N 54°51' W 005°48'0 0.6
2019-Jun-14 22:26N 54°51' W 005°48'0 0.0
2019-Jun-14 21:56N 54°51' W 005°48'0 0.0
2019-Jun-14 21:23N 54°51' W 005°48'0 0.0
2019-Jun-14 20:59N 54°51' W 005°48'2014.6
2019-Jun-14 19:35N 55°00' W 005°16'2 0.6
2019-Jun-14 16:45N 55°00' W 005°13'719.8
2019-Jun-14 16:24N 54°57' W 005°24'920.5
2019-Jun-14 15:59N 54°54' W 005°38'713.6
2019-Jun-14 15:30N 54°51' W 005°48'0 0.0
2019-Jun-14 14:55N 54°51' W 005°48'0 0.0
2019-Jun-14 14:30N 54°51' W 005°48'611.5
2019-Jun-14 13:58N 54°54' W 005°39'919.4
2019-Jun-14 13:30N 54°58' W 005°25'6 2.1
2019-Jun-14 10:38N 55°01' W 005°15'1219.4
2019-Jun-14 10:02N 54°55' W 005°33'119.5
2019-Jun-14 09:59N 54°54' W 005°35'816.8
2019-Jun-14 09:30N 54°51' W 005°48'0 0.2
2019-Jun-14 08:52N 54°51' W 005°48'0 0.0
2019-Jun-14 08:30N 54°51' W 005°48'711.6
2019-Jun-14 07:53N 54°54' W 005°37'1317.8
2019-Jun-14 07:09N 54°60' W 005°17'2 0.6
2019-Jun-14 04:11N 55°00' W 005°13'717.8
2019-Jun-14 03:49N 54°57' W 005°23'818.5
2019-Jun-14 03:24N 54°54' W 005°36'816.3
2019-Jun-14 02:56N 54°51' W 005°48'0 0.2
2019-Jun-14 02:18N 54°51' W 005°48'0 0.0
2019-Jun-14 01:51N 54°51' W 005°48'0 0.0
2019-Jun-14 01:24N 54°51' W 005°48'0 0.0
2019-Jun-14 00:59N 54°51' W 005°48'611.2
2019-Jun-14 00:28N 54°54' W 005°40'1017.4
2019-Jun-13 23:56N 54°58' W 005°25'6 1.7
2019-Jun-13 20:13N 55°00' W 005°14'1217.7
2019-Jun-13 19:33N 54°55' W 005°33'317.9
2019-Jun-13 19:24N 54°54' W 005°37'711.9
2019-Jun-13 18:49N 54°51' W 005°48'0 0.0
2019-Jun-13 18:19N 54°51' W 005°48'0 0.0
2019-Jun-13 17:38N 54°51' W 005°48'0 0.3
2019-Jun-13 17:30N 54°51' W 005°48'2018.6
2019-Jun-13 16:24N 55°00' W 005°16'1 0.4
2019-Jun-13 13:47N 55°00' W 005°14'1019.9
2019-Jun-13 13:17N 54°56' W 005°30'719.3
2019-Jun-13 12:57N 54°53' W 005°41'510.3
2019-Jun-13 12:29N 54°51' W 005°48'0 0.0
2019-Jun-13 11:40N 54°51' W 005°48'0 0.0
2019-Jun-13 11:26N 54°51' W 005°48'613.7
2019-Jun-13 11:00N 54°54' W 005°39'1521.7
2019-Jun-13 10:19N 55°00' W 005°15'1 0.6
2019-Jun-13 07:43N 55°01' W 005°13'1318.4
2019-Jun-13 06:59N 54°53' W 005°33'917.2
2019-Jun-13 06:28N 54°51' W 005°48'0 0.2
2019-Jun-13 05:52N 54°51' W 005°48'0 0.0
2019-Jun-13 05:11N 54°51' W 005°48'0 0.1
2019-Jun-13 05:00N 54°51' W 005°48'914.2
2019-Jun-13 04:22N 54°55' W 005°34'1119.6
2019-Jun-13 03:49N 55°00' W 005°17'7 2.2
2019-Jun-13 00:35N 55°02' W 005°05'1116.8
2019-Jun-12 23:56N 54°58' W 005°22'817.1
2019-Jun-12 23:28N 54°55' W 005°35'815.4
2019-Jun-12 22:57N 54°51' W 005°48'0 0.4
2019-Jun-12 22:28N 54°51' W 005°48'0 0.0
2019-Jun-12 21:49N 54°51' W 005°48'0 0.0
2019-Jun-12 21:04N 54°51' W 005°48'0 0.0
2019-Jun-12 20:58N 54°51' W 005°48'710.9
2019-Jun-12 20:20N 54°55' W 005°38'1417.6
2019-Jun-12 19:34N 55°00' W 005°16'1 0.5
2019-Jun-12 16:43N 54°60' W 005°14'618.2
2019-Jun-12 16:23N 54°57' W 005°24'819.3
2019-Jun-12 15:59N 54°54' W 005°36'815.6
2019-Jun-12 15:30N 54°51' W 005°48'0 0.1
2019-Jun-12 14:53N 54°51' W 005°48'0 0.0
2019-Jun-12 14:30N 54°51' W 005°48'612.9
2019-Jun-12 14:00N 54°54' W 005°39'1421.4
2019-Jun-12 13:22N 54°60' W 005°17'2 0.7
2019-Jun-12 10:45N 54°60' W 005°14'520.7
2019-Jun-12 10:30N 54°58' W 005°22'1019.6
2019-Jun-12 10:00N 54°54' W 005°38'713.2
2019-Jun-12 09:30N 54°51' W 005°48'0 0.0
2019-Jun-12 08:50N 54°51' W 005°48'0 0.0
2019-Jun-12 08:30N 54°51' W 005°48'612.8
2019-Jun-12 08:00N 54°54' W 005°38'1421.8
2019-Jun-12 07:22N 55°00' W 005°17'2 0.8
2019-Jun-12 04:21N 55°01' W 005°13'1216.3
2019-Jun-12 03:38N 54°55' W 005°31'216.5
2019-Jun-12 03:30N 54°54' W 005°34'816.5
2019-Jun-12 03:00N 54°51' W 005°48'0 0.2
2019-Jun-12 01:39N 54°51' W 005°48'0 0.0
2019-Jun-12 01:21N 54°51' W 005°48'0 0.0
2019-Jun-12 01:01N 54°51' W 005°48'612.5
2019-Jun-12 00:30N 54°54' W 005°38'917.5
2019-Jun-12 00:01N 54°58' W 005°25'12 4.0
2019-Jun-11 20:59N 55°03' W 005°05'6 8.4
2019-Jun-11 20:18N 55°00' W 005°14'619.7
2019-Jun-11 20:00N 54°57' W 005°24'919.0
2019-Jun-11 19:30N 54°55' W 005°39'612.4
2019-Jun-11 19:00N 54°51' W 005°48'0 0.1
2019-Jun-11 18:29N 54°51' W 005°48'0 0.0
2019-Jun-11 17:59N 54°51' W 005°48'712.5
2019-Jun-11 17:26N 54°55' W 005°38'1421.6
2019-Jun-11 16:48N 55°01' W 005°17'2 0.9
2019-Jun-11 14:25N 55°01' W 005°13'921.2
2019-Jun-11 13:59N 54°56' W 005°27'1319.8
2019-Jun-11 13:20N 54°51' W 005°48'0 0.4
2019-Jun-11 12:54N 54°51' W 005°48'0 0.0
2019-Jun-11 12:12N 54°51' W 005°48'0 0.0
2019-Jun-11 11:42N 54°51' W 005°48'0 0.0
2019-Jun-11 11:16N 54°51' W 005°48'611.7
2019-Jun-11 10:46N 54°54' W 005°39'621.8
2019-Jun-11 10:30N 54°56' W 005°31'11 4.2
2019-Jun-11 07:47N 55°01' W 005°12'919.8
2019-Jun-11 07:19N 54°57' W 005°26'719.0
2019-Jun-11 06:58N 54°54' W 005°37'714.9
2019-Jun-11 06:30N 54°51' W 005°48'0 0.1
2019-Jun-11 05:59N 54°51' W 005°48'0 0.0
2019-Jun-11 05:29N 54°51' W 005°48'0 0.0
2019-Jun-11 04:57N 54°51' W 005°48'912.3
2019-Jun-11 04:15N 54°55' W 005°35'1120.0
2019-Jun-11 03:41N 55°00' W 005°18'4 1.2
2019-Jun-11 00:24N 55°01' W 005°11'819.2
2019-Jun-11 00:00N 54°57' W 005°23'1020.0
2019-Jun-10 23:31N 54°54' W 005°39'611.9
2019-Jun-10 23:00N 54°51' W 005°48'0 0.0
2019-Jun-10 22:21N 54°51' W 005°48'0 0.0
2019-Jun-10 21:51N 54°51' W 005°48'0 0.0
2019-Jun-10 21:18N 54°51' W 005°48'0 0.0
2019-Jun-10 20:59N 54°51' W 005°48'5 9.4
2019-Jun-10 20:26N 54°54' W 005°40'717.3
2019-Jun-10 20:00N 54°57' W 005°29'917.2
2019-Jun-10 19:30N 55°00' W 005°15'0 0.2
2019-Jun-10 16:44N 54°60' W 005°16'419.3
2019-Jun-10 16:30N 54°58' W 005°22'918.1
2019-Jun-10 15:59N 54°54' W 005°37'714.0
2019-Jun-10 15:31N 54°51' W 005°48'0 0.1
2019-Jun-10 14:49N 54°51' W 005°48'0 0.0
2019-Jun-10 14:29N 54°51' W 005°48'510.5
2019-Jun-10 14:00N 54°54' W 005°41'817.0
2019-Jun-10 13:30N 54°57' W 005°27'917.5
2019-Jun-10 12:58N 55°01' W 005°12'1 0.4
2019-Jun-10 10:47N 55°00' W 005°13'517.7
2019-Jun-10 10:29N 54°58' W 005°22'917.8
2019-Jun-10 10:01N 54°54' W 005°35'815.9
2019-Jun-10 09:30N 54°51' W 005°48'0 0.2
2019-Jun-10 09:00N 54°51' W 005°48'0 0.0
2019-Jun-10 08:30N 54°51' W 005°48'5 8.3
2019-Jun-10 07:56N 54°54' W 005°41'1015.9
2019-Jun-10 07:18N 54°58' W 005°26'616.6
2019-Jun-10 06:57N 55°00' W 005°16'1 0.5
2019-Jun-10 04:15N 54°60' W 005°14'517.3
2019-Jun-10 03:58N 54°58' W 005°21'917.5
2019-Jun-10 03:25N 54°54' W 005°37'716.0
2019-Jun-10 02:59N 54°51' W 005°48'0 0.3
2019-Jun-10 02:29N 54°51' W 005°48'0 0.0
2019-Jun-10 01:47N 54°51' W 005°48'0 0.0
2019-Jun-10 01:26N 54°51' W 005°48'0 0.0
2019-Jun-10 00:54N 54°51' W 005°48'4 8.2
2019-Jun-10 00:25N 54°53' W 005°42'717.5
2019-Jun-10 00:00N 54°56' W 005°31'917.9
2019-Jun-09 23:30N 54°60' W 005°17'1 0.4
2019-Jun-09 20:15N 54°60' W 005°14'520.0
2019-Jun-09 19:59N 54°58' W 005°22'1119.3
2019-Jun-09 19:26N 54°54' W 005°40'612.9
2019-Jun-09 19:00N 54°51' W 005°48'0 0.0
2019-Jun-09 18:05N 54°51' W 005°48'0 0.0
2019-Jun-09 17:50N 54°51' W 005°48'0 0.0
2019-Jun-09 17:30N 54°51' W 005°48'611.7
2019-Jun-09 16:58N 54°54' W 005°39'918.0
2019-Jun-09 16:29N 54°58' W 005°25'8 3.0
2019-Jun-09 13:49N 55°01' W 005°12'619.4
2019-Jun-09 13:29N 54°58' W 005°22'1019.9
2019-Jun-09 12:58N 54°54' W 005°38'613.2
2019-Jun-09 12:30N 54°51' W 005°48'0 0.0
2019-Jun-09 11:21N 54°51' W 005°48'0 0.0
2019-Jun-09 11:00N 54°51' W 005°48'0 0.0
2019-Jun-09 10:30N 54°51' W 005°48'0 0.1
2019-Jun-09 09:48N 54°51' W 005°48'0 0.0
2019-Jun-09 09:30N 54°51' W 005°48'0 0.0
2019-Jun-09 08:39N 54°51' W 005°48'0 0.0
2019-Jun-09 08:28N 54°51' W 005°48'1113.0
2019-Jun-09 07:38N 54°56' W 005°32'417.3
2019-Jun-09 07:25N 54°58' W 005°26'7 0.7
2019-Jun-08 20:26N 55°00' W 005°13'1120.4
2019-Jun-08 19:54N 54°55' W 005°30'819.4
2019-Jun-08 19:30N 54°53' W 005°43'4 4.0
2019-Jun-08 18:36N 54°51' W 005°48'0 0.0
2019-Jun-08 18:18N 54°51' W 005°48'0 0.0
2019-Jun-08 17:51N 54°51' W 005°48'0 0.0
2019-Jun-08 17:24N 54°51' W 005°48'510.7
2019-Jun-08 16:58N 54°54' W 005°41'1018.4
2019-Jun-08 16:25N 54°58' W 005°25'717.7
2019-Jun-08 16:01N 55°01' W 005°14'1 0.5
2019-Jun-08 13:51N 55°01' W 005°12'617.3
2019-Jun-08 13:30N 54°58' W 005°21'1017.5
2019-Jun-08 12:56N 54°54' W 005°38'715.7
2019-Jun-08 12:30N 54°51' W 005°48'0 0.2
2019-Jun-08 12:00N 54°51' W 005°48'0 0.0
2019-Jun-08 11:30N 54°51' W 005°48'1515.0
2019-Jun-08 10:31N 54°58' W 005°25'016.1
2019-Jun-08 10:30N 54°58' W 005°25'6 2.3
2019-Jun-08 07:39N 54°60' W 005°14'418.2
2019-Jun-08 07:27N 54°58' W 005°20'818.0
2019-Jun-08 07:00N 54°55' W 005°33'1016.2
2019-Jun-08 06:25N 54°51' W 005°48'0 0.4
2019-Jun-08 05:57N 54°51' W 005°48'0 0.0
2019-Jun-08 05:30N 54°51' W 005°48'0 0.0
2019-Jun-08 05:00N 54°51' W 005°48'6 8.2
2019-Jun-08 04:19N 54°54' W 005°40'620.7
2019-Jun-08 04:00N 54°57' W 005°30'9 2.5
2019-Jun-08 00:16N 55°00' W 005°15'819.3
2019-Jun-07 23:52N 54°56' W 005°27'820.9
2019-Jun-07 23:30N 54°53' W 005°39'611.6
2019-Jun-07 23:00N 54°51' W 005°48'0 0.0
2019-Jun-07 22:30N 54°51' W 005°48'0 0.0
2019-Jun-07 22:00N 54°51' W 005°48'0 0.0
2019-Jun-07 21:29N 54°51' W 005°48'0 0.0
2019-Jun-07 20:57N 54°51' W 005°48'612.0
2019-Jun-07 20:25N 54°54' W 005°38'10 2.6
2019-Jun-07 16:40N 54°58' W 005°23'520.1
2019-Jun-07 16:26N 54°56' W 005°30'819.5
2019-Jun-07 16:01N 54°53' W 005°44'3 6.3
2019-Jun-07 15:30N 54°51' W 005°48'0 0.0
2019-Jun-07 14:28N 54°51' W 005°48'612.0
2019-Jun-07 13:59N 54°54' W 005°40'1420.5
2019-Jun-07 13:17N 55°00' W 005°17'2 0.6
2019-Jun-07 10:42N 55°00' W 005°14'419.7
2019-Jun-07 10:30N 54°58' W 005°20'1020.8
2019-Jun-07 10:00N 54°55' W 005°37'814.4
2019-Jun-07 09:29N 54°51' W 005°48'0 0.0
2019-Jun-07 08:33N 54°51' W 005°48'0 0.1
2019-Jun-07 08:29N 54°51' W 005°48'612.2
2019-Jun-07 07:59N 54°54' W 005°39'817.2
2019-Jun-07 07:29N 54°58' W 005°26'7 2.2
2019-Jun-07 04:13N 54°60' W 005°14'418.2
2019-Jun-07 04:00N 54°58' W 005°20'917.2
2019-Jun-07 03:31N 54°55' W 005°34'915.7
2019-Jun-07 02:57N 54°51' W 005°48'0 0.3
2019-Jun-07 02:21N 54°51' W 005°48'0 0.0
2019-Jun-07 01:24N 54°51' W 005°48'0 0.0
2019-Jun-07 01:00N 54°51' W 005°48'710.2
2019-Jun-07 00:19N 54°54' W 005°37'617.8
2019-Jun-07 00:00N 54°57' W 005°29'9 2.3
2019-Jun-06 20:12N 54°60' W 005°14'419.5
2019-Jun-06 19:58N 54°58' W 005°21'1020.2
2019-Jun-06 19:29N 54°54' W 005°37'714.9
2019-Jun-06 19:00N 54°51' W 005°48'0 0.1
2019-Jun-06 18:22N 54°51' W 005°48'0 0.0
2019-Jun-06 17:52N 54°51' W 005°48'5 7.7
2019-Jun-06 17:15N 54°53' W 005°41'1019.5
2019-Jun-06 16:44N 54°59' W 005°26'519.2
2019-Jun-06 16:27N 55°01' W 005°18'  
Track history (hours):
 
Tides and Currents Weather Stations Pressure Air Temp Water Temp Dewpoint Dewpoint Depression Visibility Wind Speed Wind Dir Waves Ship Positions

European Causeway

Operator: P & O Irish Sea

Last reported at 2019-Jun-16 13:46 UTC. Time now 2019-Jun-16 14:35 UTC.
Position N 54°60' W 005°14'.

Length 145 m; draft 5.5 m.

Type: Passenger vessel. MMSI: 311027000.

Date/timePositionNaut miles runAvg speedWind from/ knotsBaromVisibWave heightAir tempDewpointWater temp
2019-Jun-16 13:46N 54°60' W 005°14'518.4
2019-Jun-16 13:30N 54°58' W 005°22'917.0
2019-Jun-16 13:00N 54°55' W 005°36'815.7
2019-Jun-16 12:30N 54°51' W 005°48'0 0.3
2019-Jun-16 11:35N 54°51' W 005°48'0 0.0
2019-Jun-16 11:08N 54°51' W 005°48'0 0.0
2019-Jun-16 10:50N 54°51' W 005°48'0 0.0
2019-Jun-16 10:26N 54°51' W 005°48'0 0.0
2019-Jun-16 09:56N 54°51' W 005°48'0 0.0
2019-Jun-16 09:23N 54°51' W 005°48'0 0.0
2019-Jun-16 08:41N 54°51' W 005°48'0 0.0
2019-Jun-16 08:27N 54°51' W 005°48'913.0
2019-Jun-16 07:44N 54°55' W 005°34'617.1
2019-Jun-16 07:24N 54°58' W 005°25'1117.8
2019-Jun-16 06:46N 55°02' W 005°06'4 0.4
2019-Jun-15 20:14N 55°00' W 005°13'617.1
2019-Jun-15 19:55N 54°57' W 005°22'1018.0
2019-Jun-15 19:23N 54°54' W 005°37'715.9
2019-Jun-15 18:57N 54°51' W 005°48'0 0.2
2019-Jun-15 18:23N 54°51' W 005°48'0 0.0
2019-Jun-15 17:56N 54°51' W 005°48'0 0.0
2019-Jun-15 17:30N 54°51' W 005°48'811.2
2019-Jun-15 16:49N 54°55' W 005°36'717.3
2019-Jun-15 16:24N 54°58' W 005°25'7 2.5
2019-Jun-15 13:42N 55°00' W 005°14'618.1
2019-Jun-15 13:22N 54°57' W 005°24'717.3
2019-Jun-15 12:57N 54°54' W 005°36'815.6
2019-Jun-15 12:27N 54°51' W 005°48'0 0.2
2019-Jun-15 11:26N 54°51' W 005°48'2015.6
2019-Jun-15 10:08N 55°00' W 005°16'217.9
2019-Jun-15 10:00N 55°01' W 005°12'2 1.0
2019-Jun-15 07:35N 55°00' W 005°16'516.7
2019-Jun-15 07:17N 54°57' W 005°23'818.2
2019-Jun-15 06:50N 54°54' W 005°37'717.5
2019-Jun-15 06:26N 54°51' W 005°48'1 0.8
2019-Jun-15 05:43N 54°51' W 005°48'0 0.0
2019-Jun-15 05:28N 54°51' W 005°48'0 0.0
2019-Jun-15 05:00N 54°51' W 005°48'713.1
2019-Jun-15 04:27N 54°55' W 005°38'817.4
2019-Jun-15 04:00N 54°60' W 005°27'7 1.9
2019-Jun-15 00:14N 55°00' W 005°14'417.9
2019-Jun-15 00:01N 54°58' W 005°20'917.0
2019-Jun-14 23:30N 54°55' W 005°34'915.9
2019-Jun-14 22:58N 54°51' W 005°48'0 0.6
2019-Jun-14 22:26N 54°51' W 005°48'0 0.0
2019-Jun-14 21:56N 54°51' W 005°48'0 0.0
2019-Jun-14 21:23N 54°51' W 005°48'0 0.0
2019-Jun-14 20:59N 54°51' W 005°48'2014.6
2019-Jun-14 19:35N 55°00' W 005°16'2 0.6
2019-Jun-14 16:45N 55°00' W 005°13'719.8
2019-Jun-14 16:24N 54°57' W 005°24'920.5
2019-Jun-14 15:59N 54°54' W 005°38'713.6
2019-Jun-14 15:30N 54°51' W 005°48'0 0.0
2019-Jun-14 14:55N 54°51' W 005°48'0 0.0
2019-Jun-14 14:30N 54°51' W 005°48'611.5
2019-Jun-14 13:58N 54°54' W 005°39'919.4
2019-Jun-14 13:30N 54°58' W 005°25'6 2.1
2019-Jun-14 10:38N 55°01' W 005°15'1219.4
2019-Jun-14 10:02N 54°55' W 005°33'119.5
2019-Jun-14 09:59N 54°54' W 005°35'816.8
2019-Jun-14 09:30N 54°51' W 005°48'0 0.2
2019-Jun-14 08:52N 54°51' W 005°48'0 0.0
2019-Jun-14 08:30N 54°51' W 005°48'711.6
2019-Jun-14 07:53N 54°54' W 005°37'1317.8
2019-Jun-14 07:09N 54°60' W 005°17'2 0.6
2019-Jun-14 04:11N 55°00' W 005°13'717.8
2019-Jun-14 03:49N 54°57' W 005°23'818.5
2019-Jun-14 03:24N 54°54' W 005°36'816.3
2019-Jun-14 02:56N 54°51' W 005°48'0 0.2
2019-Jun-14 02:18N 54°51' W 005°48'0 0.0
2019-Jun-14 01:51N 54°51' W 005°48'0 0.0
2019-Jun-14 01:24N 54°51' W 005°48'0 0.0
2019-Jun-14 00:59N 54°51' W 005°48'611.2
2019-Jun-14 00:28N 54°54' W 005°40'1017.4
2019-Jun-13 23:56N 54°58' W 005°25'6 1.7
2019-Jun-13 20:13N 55°00' W 005°14'1217.7
2019-Jun-13 19:33N 54°55' W 005°33'317.9
2019-Jun-13 19:24N 54°54' W 005°37'711.9
2019-Jun-13 18:49N 54°51' W 005°48'0 0.0
2019-Jun-13 18:19N 54°51' W 005°48'0 0.0
2019-Jun-13 17:38N 54°51' W 005°48'0 0.3
2019-Jun-13 17:30N 54°51' W 005°48'2018.6
2019-Jun-13 16:24N 55°00' W 005°16'1 0.4
2019-Jun-13 13:47N 55°00' W 005°14'1019.9
2019-Jun-13 13:17N 54°56' W 005°30'719.3
2019-Jun-13 12:57N 54°53' W 005°41'510.3
2019-Jun-13 12:29N 54°51' W 005°48'0 0.0
2019-Jun-13 11:40N 54°51' W 005°48'0 0.0
2019-Jun-13 11:26N 54°51' W 005°48'613.7
2019-Jun-13 11:00N 54°54' W 005°39'1521.7
2019-Jun-13 10:19N 55°00' W 005°15'1 0.6
2019-Jun-13 07:43N 55°01' W 005°13'1318.4
2019-Jun-13 06:59N 54°53' W 005°33'917.2
2019-Jun-13 06:28N 54°51' W 005°48'0 0.2
2019-Jun-13 05:52N 54°51' W 005°48'0 0.0
2019-Jun-13 05:11N 54°51' W 005°48'0 0.1
2019-Jun-13 05:00N 54°51' W 005°48'914.2
2019-Jun-13 04:22N 54°55' W 005°34'1119.6
2019-Jun-13 03:49N 55°00' W 005°17'7 2.2
2019-Jun-13 00:35N 55°02' W 005°05'1116.8
2019-Jun-12 23:56N 54°58' W 005°22'817.1
2019-Jun-12 23:28N 54°55' W 005°35'815.4
2019-Jun-12 22:57N 54°51' W 005°48'0 0.4
2019-Jun-12 22:28N 54°51' W 005°48'0 0.0
2019-Jun-12 21:49N 54°51' W 005°48'0 0.0
2019-Jun-12 21:04N 54°51' W 005°48'0 0.0
2019-Jun-12 20:58N 54°51' W 005°48'710.9
2019-Jun-12 20:20N 54°55' W 005°38'1417.6
2019-Jun-12 19:34N 55°00' W 005°16'1 0.5
2019-Jun-12 16:43N 54°60' W 005°14'618.2
2019-Jun-12 16:23N 54°57' W 005°24'819.3
2019-Jun-12 15:59N 54°54' W 005°36'815.6
2019-Jun-12 15:30N 54°51' W 005°48'0 0.1
2019-Jun-12 14:53N 54°51' W 005°48'0 0.0
2019-Jun-12 14:30N 54°51' W 005°48'612.9
2019-Jun-12 14:00N 54°54' W 005°39'1421.4
2019-Jun-12 13:22N 54°60' W 005°17'2 0.7
2019-Jun-12 10:45N 54°60' W 005°14'520.7
2019-Jun-12 10:30N 54°58' W 005°22'1019.6
2019-Jun-12 10:00N 54°54' W 005°38'713.2
2019-Jun-12 09:30N 54°51' W 005°48'0 0.0
2019-Jun-12 08:50N 54°51' W 005°48'0 0.0
2019-Jun-12 08:30N 54°51' W 005°48'612.8
2019-Jun-12 08:00N 54°54' W 005°38'1421.8
2019-Jun-12 07:22N 55°00' W 005°17'2 0.8
2019-Jun-12 04:21N 55°01' W 005°13'1216.3
2019-Jun-12 03:38N 54°55' W 005°31'216.5
2019-Jun-12 03:30N 54°54' W 005°34'816.5
2019-Jun-12 03:00N 54°51' W 005°48'0 0.2
2019-Jun-12 01:39N 54°51' W 005°48'0 0.0
2019-Jun-12 01:21N 54°51' W 005°48'0 0.0
2019-Jun-12 01:01N 54°51' W 005°48'612.5
2019-Jun-12 00:30N 54°54' W 005°38'917.5
2019-Jun-12 00:01N 54°58' W 005°25'12 4.0
2019-Jun-11 20:59N 55°03' W 005°05'6 8.4
2019-Jun-11 20:18N 55°00' W 005°14'619.7
2019-Jun-11 20:00N 54°57' W 005°24'919.0
2019-Jun-11 19:30N 54°55' W 005°39'612.4
2019-Jun-11 19:00N 54°51' W 005°48'0 0.1
2019-Jun-11 18:29N 54°51' W 005°48'0 0.0
2019-Jun-11 17:59N 54°51' W 005°48'712.5
2019-Jun-11 17:26N 54°55' W 005°38'1421.6
2019-Jun-11 16:48N 55°01' W 005°17'2 0.9
2019-Jun-11 14:25N 55°01' W 005°13'921.2
2019-Jun-11 13:59N 54°56' W 005°27'1319.8
2019-Jun-11 13:20N 54°51' W 005°48'0 0.4
2019-Jun-11 12:54N 54°51' W 005°48'0 0.0
2019-Jun-11 12:12N 54°51' W 005°48'0 0.0
2019-Jun-11 11:42N 54°51' W 005°48'0 0.0
2019-Jun-11 11:16N 54°51' W 005°48'611.7
2019-Jun-11 10:46N 54°54' W 005°39'621.8
2019-Jun-11 10:30N 54°56' W 005°31'11 4.2
2019-Jun-11 07:47N 55°01' W 005°12'919.8
2019-Jun-11 07:19N 54°57' W 005°26'719.0
2019-Jun-11 06:58N 54°54' W 005°37'714.9
2019-Jun-11 06:30N 54°51' W 005°48'0 0.1
2019-Jun-11 05:59N 54°51' W 005°48'0 0.0
2019-Jun-11 05:29N 54°51' W 005°48'0 0.0
2019-Jun-11 04:57N 54°51' W 005°48'912.3
2019-Jun-11 04:15N 54°55' W 005°35'1120.0
2019-Jun-11 03:41N 55°00' W 005°18'4 1.2
2019-Jun-11 00:24N 55°01' W 005°11'819.2
2019-Jun-11 00:00N 54°57' W 005°23'1020.0
2019-Jun-10 23:31N 54°54' W 005°39'611.9
2019-Jun-10 23:00N 54°51' W 005°48'0 0.0
2019-Jun-10 22:21N 54°51' W 005°48'0 0.0
2019-Jun-10 21:51N 54°51' W 005°48'0 0.0
2019-Jun-10 21:18N 54°51' W 005°48'0 0.0
2019-Jun-10 20:59N 54°51' W 005°48'5 9.4
2019-Jun-10 20:26N 54°54' W 005°40'717.3
2019-Jun-10 20:00N 54°57' W 005°29'917.2
2019-Jun-10 19:30N 55°00' W 005°15'0 0.2
2019-Jun-10 16:44N 54°60' W 005°16'419.3
2019-Jun-10 16:30N 54°58' W 005°22'918.1
2019-Jun-10 15:59N 54°54' W 005°37'714.0
2019-Jun-10 15:31N 54°51' W 005°48'0 0.1
2019-Jun-10 14:49N 54°51' W 005°48'0 0.0
2019-Jun-10 14:29N 54°51' W 005°48'510.5
2019-Jun-10 14:00N 54°54' W 005°41'817.0
2019-Jun-10 13:30N 54°57' W 005°27'917.5
2019-Jun-10 12:58N 55°01' W 005°12'1 0.4
2019-Jun-10 10:47N 55°00' W 005°13'517.7
2019-Jun-10 10:29N 54°58' W 005°22'917.8
2019-Jun-10 10:01N 54°54' W 005°35'815.9
2019-Jun-10 09:30N 54°51' W 005°48'0 0.2
2019-Jun-10 09:00N 54°51' W 005°48'0 0.0
2019-Jun-10 08:30N 54°51' W 005°48'5 8.3
2019-Jun-10 07:56N 54°54' W 005°41'1015.9
2019-Jun-10 07:18N 54°58' W 005°26'616.6
2019-Jun-10 06:57N 55°00' W 005°16'1 0.5
2019-Jun-10 04:15N 54°60' W 005°14'517.3
2019-Jun-10 03:58N 54°58' W 005°21'917.5
2019-Jun-10 03:25N 54°54' W 005°37'716.0
2019-Jun-10 02:59N 54°51' W 005°48'0 0.3
2019-Jun-10 02:29N 54°51' W 005°48'0 0.0
2019-Jun-10 01:47N 54°51' W 005°48'0 0.0
2019-Jun-10 01:26N 54°51' W 005°48'0 0.0
2019-Jun-10 00:54N 54°51' W 005°48'4 8.2
2019-Jun-10 00:25N 54°53' W 005°42'717.5
2019-Jun-10 00:00N 54°56' W 005°31'917.9
2019-Jun-09 23:30N 54°60' W 005°17'1 0.4
2019-Jun-09 20:15N 54°60' W 005°14'520.0
2019-Jun-09 19:59N 54°58' W 005°22'1119.3
2019-Jun-09 19:26N 54°54' W 005°40'612.9
2019-Jun-09 19:00N 54°51' W 005°48'0 0.0
2019-Jun-09 18:05N 54°51' W 005°48'0 0.0
2019-Jun-09 17:50N 54°51' W 005°48'0 0.0
2019-Jun-09 17:30N 54°51' W 005°48'611.7
2019-Jun-09 16:58N 54°54' W 005°39'918.0
2019-Jun-09 16:29N 54°58' W 005°25'8 3.0
2019-Jun-09 13:49N 55°01' W 005°12'619.4
2019-Jun-09 13:29N 54°58' W 005°22'1019.9
2019-Jun-09 12:58N 54°54' W 005°38'613.2
2019-Jun-09 12:30N 54°51' W 005°48'0 0.0
2019-Jun-09 11:21N 54°51' W 005°48'0 0.0
2019-Jun-09 11:00N 54°51' W 005°48'0 0.0
2019-Jun-09 10:30N 54°51' W 005°48'0 0.1
2019-Jun-09 09:48N 54°51' W 005°48'0 0.0
2019-Jun-09 09:30N 54°51' W 005°48'0 0.0
2019-Jun-09 08:39N 54°51' W 005°48'0 0.0
2019-Jun-09 08:28N 54°51' W 005°48'1113.0
2019-Jun-09 07:38N 54°56' W 005°32'417.3
2019-Jun-09 07:25N 54°58' W 005°26'7 0.7
2019-Jun-08 20:26N 55°00' W 005°13'1120.4
2019-Jun-08 19:54N 54°55' W 005°30'819.4
2019-Jun-08 19:30N 54°53' W 005°43'4 4.0
2019-Jun-08 18:36N 54°51' W 005°48'0 0.0
2019-Jun-08 18:18N 54°51' W 005°48'0 0.0
2019-Jun-08 17:51N 54°51' W 005°48'0 0.0
2019-Jun-08 17:24N 54°51' W 005°48'510.7
2019-Jun-08 16:58N 54°54' W 005°41'1018.4
2019-Jun-08 16:25N 54°58' W 005°25'717.7
2019-Jun-08 16:01N 55°01' W 005°14'1 0.5
2019-Jun-08 13:51N 55°01' W 005°12'617.3
2019-Jun-08 13:30N 54°58' W 005°21'1017.5
2019-Jun-08 12:56N 54°54' W 005°38'715.7
2019-Jun-08 12:30N 54°51' W 005°48'0 0.2
2019-Jun-08 12:00N 54°51' W 005°48'0 0.0
2019-Jun-08 11:30N 54°51' W 005°48'1515.0
2019-Jun-08 10:31N 54°58' W 005°25'016.1
2019-Jun-08 10:30N 54°58' W 005°25'6 2.3
2019-Jun-08 07:39N 54°60' W 005°14'418.2
2019-Jun-08 07:27N 54°58' W 005°20'818.0
2019-Jun-08 07:00N 54°55' W 005°33'1016.2
2019-Jun-08 06:25N 54°51' W 005°48'0 0.4
2019-Jun-08 05:57N 54°51' W 005°48'0 0.0
2019-Jun-08 05:30N 54°51' W 005°48'0 0.0
2019-Jun-08 05:00N 54°51' W 005°48'6 8.2
2019-Jun-08 04:19N 54°54' W 005°40'620.7
2019-Jun-08 04:00N 54°57' W 005°30'9 2.5
2019-Jun-08 00:16N 55°00' W 005°15'819.3
2019-Jun-07 23:52N 54°56' W 005°27'820.9
2019-Jun-07 23:30N 54°53' W 005°39'611.6
2019-Jun-07 23:00N 54°51' W 005°48'0 0.0
2019-Jun-07 22:30N 54°51' W 005°48'0 0.0
2019-Jun-07 22:00N 54°51' W 005°48'0 0.0
2019-Jun-07 21:29N 54°51' W 005°48'0 0.0
2019-Jun-07 20:57N 54°51' W 005°48'612.0
2019-Jun-07 20:25N 54°54' W 005°38'10 2.6
2019-Jun-07 16:40N 54°58' W 005°23'520.1
2019-Jun-07 16:26N 54°56' W 005°30'819.5
2019-Jun-07 16:01N 54°53' W 005°44'3 6.3
2019-Jun-07 15:30N 54°51' W 005°48'0 0.0
2019-Jun-07 14:28N 54°51' W 005°48'612.0
2019-Jun-07 13:59N 54°54' W 005°40'1420.5
2019-Jun-07 13:17N 55°00' W 005°17'2 0.6
2019-Jun-07 10:42N 55°00' W 005°14'419.7
2019-Jun-07 10:30N 54°58' W 005°20'1020.8
2019-Jun-07 10:00N 54°55' W 005°37'814.4
2019-Jun-07 09:29N 54°51' W 005°48'0 0.0
2019-Jun-07 08:33N 54°51' W 005°48'0 0.1
2019-Jun-07 08:29N 54°51' W 005°48'612.2
2019-Jun-07 07:59N 54°54' W 005°39'817.2
2019-Jun-07 07:29N 54°58' W 005°26'7 2.2
2019-Jun-07 04:13N 54°60' W 005°14'418.2
2019-Jun-07 04:00N 54°58' W 005°20'917.2
2019-Jun-07 03:31N 54°55' W 005°34'915.7
2019-Jun-07 02:57N 54°51' W 005°48'0 0.3
2019-Jun-07 02:21N 54°51' W 005°48'0 0.0
2019-Jun-07 01:24N 54°51' W 005°48'0 0.0
2019-Jun-07 01:00N 54°51' W 005°48'710.2
2019-Jun-07 00:19N 54°54' W 005°37'617.8
2019-Jun-07 00:00N 54°57' W 005°29'9 2.3
2019-Jun-06 20:12N 54°60' W 005°14'419.5
2019-Jun-06 19:58N 54°58' W 005°21'1020.2
2019-Jun-06 19:29N 54°54' W 005°37'714.9
2019-Jun-06 19:00N 54°51' W 005°48'0 0.1
2019-Jun-06 18:22N 54°51' W 005°48'0 0.0
2019-Jun-06 17:52N 54°51' W 005°48'5 7.7
2019-Jun-06 17:15N 54°53' W 005°41'1019.5
2019-Jun-06 16:44N 54°59' W 005°26'519.2
2019-Jun-06 16:27N 55°01' W 005°18'  

Dump ship's entire track history